createdAt,value
2019-03-29T00:00:29.116Z,99244.73
2019-03-29T00:03:00.208Z,99237.19
2019-03-29T00:05:31.259Z,99240.73
2019-03-29T00:08:02.487Z,99237.03
2019-03-29T00:10:33.523Z,99236.23
2019-03-29T00:13:04.612Z,99229.31
2019-03-29T00:15:35.707Z,99234.52
2019-03-29T00:18:06.996Z,99235.48
2019-03-29T00:20:38.040Z,99230.05
2019-03-29T00:23:09.219Z,99230.20
2019-03-29T00:25:40.387Z,99232.84
2019-03-29T00:28:11.606Z,99237.86
2019-03-29T00:30:42.691Z,99237.48
2019-03-29T00:33:13.715Z,99232.17
2019-03-29T00:35:44.793Z,99225.05
2019-03-29T00:38:15.960Z,99230.02
2019-03-29T00:40:47.191Z,99232.84
2019-03-29T00:43:18.343Z,99236.44
2019-03-29T00:45:49.400Z,99232.61
2019-03-29T00:48:21.221Z,99236.73
2019-03-29T00:50:53.053Z,99231.75
2019-03-29T00:53:24.267Z,99228.89
2019-03-29T00:55:55.557Z,99232.43
2019-03-29T00:58:26.631Z,99225.80
2019-03-29T01:00:57.738Z,99225.05
2019-03-29T01:03:28.824Z,99222.97
2019-03-29T01:05:59.900Z,99222.55
2019-03-29T01:08:31.143Z,99221.09
2019-03-29T01:11:02.283Z,99219.41
2019-03-29T01:13:33.465Z,99218.09
2019-03-29T01:16:04.655Z,99217.02
2019-03-29T01:18:35.809Z,99216.77
2019-03-29T01:21:07.162Z,99213.05
2019-03-29T01:23:38.325Z,99214.17
2019-03-29T01:26:09.617Z,99220.98
2019-03-29T01:28:40.712Z,99209.61
2019-03-29T01:31:11.809Z,99210.44
2019-03-29T01:33:42.973Z,99208.76
2019-03-29T01:36:14.204Z,99209.51
2019-03-29T01:38:45.345Z,99207.28
2019-03-29T01:41:16.548Z,99203.98
2019-03-29T01:43:47.787Z,99208.39
2019-03-29T01:46:18.941Z,99212.11
2019-03-29T01:48:50.148Z,99208.69
2019-03-29T01:51:21.304Z,99206.15
2019-03-29T01:53:52.634Z,99210.13
2019-03-29T01:56:23.887Z,99210.23
2019-03-29T01:58:55.170Z,99202.36
2019-03-29T02:01:26.335Z,99196.62
2019-03-29T02:03:57.534Z,99203.95
2019-03-29T02:06:28.678Z,99201.53
2019-03-29T02:08:59.932Z,99203.69
2019-03-29T02:11:31.101Z,99192.44
2019-03-29T02:14:02.343Z,99198.06
2019-03-29T02:16:33.523Z,99197.83
2019-03-29T02:19:05.279Z,99193.29
2019-03-29T02:21:37.065Z,99190.66
2019-03-29T02:24:08.213Z,99194.22
2019-03-29T02:26:39.225Z,99190.00
2019-03-29T02:29:11.060Z,99189.39
2019-03-29T02:31:42.857Z,99190.95
2019-03-29T02:34:15.708Z,99191.06
2019-03-29T02:36:46.813Z,99187.77
2019-03-29T02:39:24.228Z,99179.68
2019-03-29T02:41:55.271Z,99184.42
2019-03-29T02:44:26.401Z,99191.13
2019-03-29T02:46:57.522Z,99183.96
2019-03-29T02:49:28.631Z,99180.85
2019-03-29T02:51:59.820Z,99180.63
2019-03-29T02:54:31.106Z,99180.63
2019-03-29T02:57:02.686Z,99180.57
2019-03-29T02:59:33.881Z,99184.36
2019-03-29T03:02:05.121Z,99184.55
2019-03-29T03:04:36.258Z,99179.78
2019-03-29T03:07:07.483Z,99182.68
2019-03-29T03:09:38.464Z,99181.17
2019-03-29T03:12:09.582Z,99183.33
2019-03-29T03:14:40.717Z,99184.97
2019-03-29T03:17:11.911Z,99179.05
2019-03-29T03:19:43.056Z,99176.53
2019-03-29T03:22:14.280Z,99173.52
2019-03-29T03:24:45.435Z,99168.60
2019-03-29T03:27:16.661Z,99169.86
2019-03-29T03:29:48.541Z,99161.98
2019-03-29T03:32:19.865Z,99166.58
2019-03-29T03:34:51.040Z,99160.47
2019-03-29T03:37:22.232Z,99166.00
2019-03-29T03:39:53.479Z,99158.19
2019-03-29T03:42:24.763Z,99163.86
2019-03-29T03:44:55.916Z,99164.41
2019-03-29T03:47:27.042Z,99157.59
2019-03-29T03:50:00.956Z,99164.80
2019-03-29T03:52:31.332Z,99168.18
2019-03-29T03:55:02.603Z,99168.80
2019-03-29T03:57:35.868Z,99172.08
2019-03-29T04:00:09.107Z,99170.76
2019-03-29T04:02:40.447Z,99166.31
2019-03-29T04:05:11.808Z,99166.91
2019-03-29T04:07:42.872Z,99168.45
2019-03-29T04:10:14.131Z,99162.87
2019-03-29T04:12:45.127Z,99166.90
2019-03-29T04:15:16.392Z,99174.90
2019-03-29T04:17:47.549Z,99167.89
2019-03-29T04:20:18.634Z,99169.22
2019-03-29T04:22:49.825Z,99168.45
2019-03-29T04:25:20.924Z,99171.59
2019-03-29T04:27:51.950Z,99166.48
2019-03-29T04:30:23.039Z,99171.21
2019-03-29T04:32:54.191Z,99171.21
2019-03-29T04:35:25.353Z,99168.83
2019-03-29T04:37:56.419Z,99174.02
2019-03-29T04:40:27.562Z,99170.47
2019-03-29T04:42:58.935Z,99182.77
2019-03-29T04:45:30.145Z,99172.80
2019-03-29T04:48:01.370Z,99176.63
2019-03-29T04:50:32.742Z,99180.95
2019-03-29T04:53:03.880Z,99173.77
2019-03-29T04:55:35.507Z,99172.66
2019-03-29T04:58:06.900Z,99171.39
2019-03-29T05:00:38.037Z,99166.00
2019-03-29T05:03:09.347Z,99162.86
2019-03-29T05:05:40.564Z,99161.63
2019-03-29T05:08:11.649Z,99165.52
2019-03-29T05:10:42.807Z,99172.16
2019-03-29T05:13:13.968Z,99170.02
2019-03-29T05:15:45.168Z,99171.91
2019-03-29T05:18:16.378Z,99168.89
2019-03-29T05:20:47.625Z,99173.02
2019-03-29T05:23:18.667Z,99171.28
2019-03-29T05:25:49.764Z,99178.25
2019-03-29T05:28:20.826Z,99182.92
2019-03-29T05:30:51.998Z,99178.37
2019-03-29T05:33:23.244Z,99175.56
2019-03-29T05:35:54.448Z,99182.17
2019-03-29T05:38:25.439Z,99179.27
2019-03-29T05:40:56.735Z,99176.39
2019-03-29T05:43:27.840Z,99177.09
2019-03-29T05:45:59.065Z,99176.84
2019-03-29T05:48:30.095Z,99174.99
2019-03-29T05:51:01.246Z,99175.12
2019-03-29T05:53:32.326Z,99182.06
2019-03-29T05:56:04.120Z,99180.20
2019-03-29T05:58:35.131Z,99181.14
2019-03-29T06:01:06.507Z,99182.33
2019-03-29T06:03:37.765Z,99183.68
2019-03-29T06:06:08.881Z,99189.20
2019-03-29T06:08:39.998Z,99189.03
2019-03-29T06:11:11.086Z,99185.84
2019-03-29T06:13:42.147Z,99189.20
2019-03-29T06:16:13.324Z,99188.13
2019-03-29T06:18:44.411Z,99180.19
2019-03-29T06:21:15.648Z,99182.55
2019-03-29T06:23:46.700Z,99173.62
2019-03-29T06:26:17.952Z,99171.63
2019-03-29T06:28:48.995Z,99170.80
2019-03-29T06:31:20.311Z,99166.44
2019-03-29T06:33:51.493Z,99171.42
2019-03-29T06:36:25.765Z,99173.81
2019-03-29T06:38:59.089Z,99167.42
2019-03-29T06:41:30.259Z,99171.01
2019-03-29T06:44:01.383Z,99168.46
2019-03-29T06:46:32.566Z,99167.77
2019-03-29T06:49:03.672Z,99164.44
2019-03-29T06:51:34.915Z,99162.73
2019-03-29T06:54:06.102Z,99166.73
2019-03-29T06:56:37.193Z,99165.55
2019-03-29T06:59:08.310Z,99165.06
2019-03-29T07:01:39.501Z,99158.72
2019-03-29T07:04:10.629Z,99156.66
2019-03-29T07:06:41.711Z,99159.85
2019-03-29T07:09:12.836Z,99163.56
2019-03-29T07:11:44.093Z,99163.92
2019-03-29T07:14:15.229Z,99159.80
2019-03-29T07:16:46.362Z,99162.67
2019-03-29T07:19:17.489Z,99166.27
2019-03-29T07:21:48.588Z,99168.30
2019-03-29T07:24:19.542Z,99165.96
2019-03-29T07:26:50.715Z,99161.78
2019-03-29T07:29:21.867Z,99161.36
2019-03-29T07:31:53.353Z,99159.62
2019-03-29T07:34:25.549Z,99162.80
2019-03-29T07:36:56.636Z,99167.39
2019-03-29T07:39:27.659Z,99164.00
2019-03-29T07:41:58.975Z,99161.22
2019-03-29T07:44:30.035Z,99162.38
2019-03-29T07:47:01.359Z,99158.16
2019-03-29T07:49:32.401Z,99158.53
2019-03-29T07:52:03.509Z,99155.28
2019-03-29T07:54:34.778Z,99157.60
2019-03-29T07:57:05.992Z,99160.78
2019-03-29T07:59:37.493Z,99151.27
2019-03-29T08:02:08.752Z,99156.27
2019-03-29T08:04:40.065Z,99153.81
2019-03-29T08:07:11.102Z,99156.94
2019-03-29T08:09:42.245Z,99149.52
2019-03-29T08:12:13.416Z,99142.66
2019-03-29T08:14:44.447Z,99138.80
2019-03-29T08:17:15.591Z,99137.51
2019-03-29T08:19:46.567Z,99145.94
2019-03-29T08:22:17.659Z,99141.78
2019-03-29T08:24:48.965Z,99140.48
2019-03-29T08:27:20.229Z,99145.97
2019-03-29T08:29:51.435Z,99145.05
2019-03-29T08:32:22.667Z,99143.53
2019-03-29T08:34:53.809Z,99143.41
2019-03-29T08:37:24.889Z,99143.12
2019-03-29T08:39:56.629Z,99142.01
2019-03-29T08:42:28.095Z,99143.88
2019-03-29T08:44:59.015Z,99141.48
2019-03-29T08:47:30.229Z,99134.70
2019-03-29T08:50:01.281Z,99144.97
2019-03-29T08:52:32.441Z,99140.19
2019-03-29T08:55:03.710Z,99145.50
2019-03-29T08:57:34.854Z,99146.64
2019-03-29T09:00:07.569Z,99145.31
2019-03-29T09:02:38.866Z,99148.97
2019-03-29T09:05:10.165Z,99140.37
2019-03-29T09:07:44.887Z,99138.32
2019-03-29T09:10:25.907Z,99143.66
2019-03-29T09:12:57.128Z,99137.50
2019-03-29T09:15:28.298Z,99138.58
2019-03-29T09:18:00.100Z,99140.08
2019-03-29T09:20:34.284Z,99133.44
2019-03-29T09:23:04.475Z,99122.47
2019-03-29T09:25:35.687Z,99127.39
2019-03-29T09:28:06.986Z,99125.70
2019-03-29T09:30:38.106Z,99121.66
2019-03-29T09:33:09.286Z,99115.58
2019-03-29T09:35:42.812Z,99120.39
2019-03-29T09:38:13.401Z,99119.69
2019-03-29T09:40:53.527Z,99120.27
2019-03-29T09:43:17.398Z,99110.45
2019-03-29T09:45:48.507Z,99108.90
2019-03-29T09:48:19.801Z,99110.85
2019-03-29T09:50:51.192Z,99102.36
2019-03-29T09:53:22.382Z,99097.48
2019-03-29T09:55:53.675Z,99100.28
2019-03-29T09:58:24.905Z,99094.80
2019-03-29T10:00:56.017Z,99097.70
2019-03-29T10:03:27.117Z,99089.80
2019-03-29T10:05:58.221Z,99086.00
2019-03-29T10:08:29.397Z,99084.37
2019-03-29T10:11:00.415Z,99084.48
2019-03-29T10:13:31.598Z,99085.49
2019-03-29T10:16:02.696Z,99080.66
2019-03-29T10:18:33.761Z,99080.85
2019-03-29T10:21:05.041Z,99073.63
2019-03-29T10:23:36.198Z,99078.66
2019-03-29T10:26:07.466Z,99076.55
2019-03-29T10:28:38.721Z,99070.93
2019-03-29T10:31:09.841Z,99076.83
2019-03-29T10:33:40.926Z,99077.83
2019-03-29T10:36:11.962Z,99072.19
2019-03-29T10:38:43.061Z,99058.38
2019-03-29T10:41:14.114Z,99067.38
2019-03-29T10:43:45.244Z,99058.45
2019-03-29T10:46:16.351Z,99063.41
2019-03-29T10:48:47.509Z,99056.97
2019-03-29T10:51:18.473Z,99059.88
2019-03-29T10:53:49.563Z,99051.69
2019-03-29T10:56:33.426Z,99049.19
2019-03-29T10:58:53.587Z,99050.44
2019-03-29T11:01:24.975Z,99041.37
2019-03-29T11:03:56.107Z,99040.70
2019-03-29T11:06:27.270Z,99043.08
2019-03-29T11:08:58.459Z,99037.09
2019-03-29T11:11:29.574Z,99042.78
2019-03-29T11:14:00.664Z,99034.31
2019-03-29T11:16:31.965Z,99034.27
2019-03-29T11:19:03.188Z,99040.01
2019-03-29T11:21:34.139Z,99039.21
2019-03-29T11:24:08.873Z,99032.92
2019-03-29T11:26:38.204Z,99031.20
2019-03-29T11:29:09.428Z,99037.14
2019-03-29T11:31:40.683Z,99036.80
2019-03-29T11:34:11.789Z,99036.88
2019-03-29T11:36:42.914Z,99027.64
2019-03-29T11:39:14.352Z,99019.58
2019-03-29T11:41:45.505Z,99018.98
2019-03-29T11:44:16.793Z,99016.27
2019-03-29T11:46:47.853Z,99016.08
2019-03-29T11:49:19.366Z,99011.55
2019-03-29T11:51:50.564Z,99011.81
2019-03-29T11:54:21.813Z,99019.16
2019-03-29T11:56:53.031Z,99006.81
2019-03-29T11:59:24.023Z,99006.44
2019-03-29T12:01:55.140Z,99000.31
2019-03-29T12:04:26.430Z,98998.41
2019-03-29T12:06:57.535Z,98999.56
2019-03-29T12:09:28.835Z,98998.59
2019-03-29T12:11:59.988Z,98993.73
2019-03-29T12:14:31.070Z,98993.58
2019-03-29T12:17:02.274Z,98996.80
2019-03-29T12:19:33.480Z,98986.53
2019-03-29T12:22:04.617Z,98990.70
2019-03-29T12:24:35.878Z,98983.52
2019-03-29T12:27:07.030Z,98975.27
2019-03-29T12:29:38.182Z,98968.97
2019-03-29T12:32:09.220Z,98967.10
2019-03-29T12:34:40.369Z,98966.97
2019-03-29T12:37:11.502Z,98966.45
2019-03-29T12:39:42.594Z,98965.34
2019-03-29T12:42:13.821Z,98959.02
2019-03-29T12:44:44.886Z,98955.63
2019-03-29T12:47:16.023Z,98963.27
2019-03-29T12:49:47.151Z,98960.84
2019-03-29T12:52:18.218Z,98951.17
2019-03-29T12:54:49.378Z,98946.84
2019-03-29T12:57:20.501Z,98946.27
2019-03-29T12:59:51.751Z,98942.98
2019-03-29T13:02:23.066Z,98941.17
2019-03-29T13:04:54.149Z,98941.80
2019-03-29T13:07:25.570Z,98932.14
2019-03-29T13:09:56.729Z,98937.33
2019-03-29T13:12:27.911Z,98937.67
2019-03-29T13:14:59.009Z,98930.76
2019-03-29T13:17:30.128Z,98932.72
2019-03-29T13:20:01.267Z,98928.84
2019-03-29T13:22:34.668Z,98924.70
2019-03-29T13:25:07.551Z,98919.52
2019-03-29T13:27:38.792Z,98917.46
2019-03-29T13:30:11.134Z,98909.77
2019-03-29T13:32:42.339Z,98903.81
2019-03-29T13:35:13.761Z,98895.34
2019-03-29T13:37:44.785Z,98894.20
2019-03-29T13:40:16.117Z,98891.17
2019-03-29T13:42:47.319Z,98883.41
2019-03-29T13:45:18.565Z,98886.97
2019-03-29T13:47:49.731Z,98887.75
2019-03-29T13:50:20.938Z,98893.92
2019-03-29T13:52:52.048Z,98897.14
2019-03-29T13:55:23.273Z,98887.07
2019-03-29T13:57:54.445Z,98887.91
2019-03-29T14:00:25.717Z,98884.41
2019-03-29T14:02:56.811Z,98879.21
2019-03-29T14:05:27.798Z,98871.95
2019-03-29T14:07:58.999Z,98878.39
2019-03-29T14:10:30.115Z,98874.53
2019-03-29T14:13:01.162Z,98868.77
2019-03-29T14:15:32.303Z,98867.60
2019-03-29T14:18:03.415Z,98859.53
2019-03-29T14:20:35.650Z,98855.28
2019-03-29T14:23:07.293Z,98851.59
2019-03-29T14:25:38.459Z,98851.75
2019-03-29T14:28:09.690Z,98847.91
2019-03-29T14:30:40.917Z,98844.77
2019-03-29T14:33:12.103Z,98850.12
2019-03-29T14:35:43.337Z,98846.53
2019-03-29T14:38:14.488Z,98844.45
2019-03-29T14:40:45.585Z,98836.45
2019-03-29T14:43:16.790Z,98831.97
2019-03-29T14:45:47.956Z,98836.42
2019-03-29T14:48:19.039Z,98830.69
2019-03-29T14:50:50.263Z,98827.75
2019-03-29T14:53:21.439Z,98826.66
2019-03-29T14:55:52.602Z,98813.20
2019-03-29T14:58:23.655Z,98809.33
2019-03-29T15:00:54.778Z,98808.81
2019-03-29T15:03:25.972Z,98806.83
2019-03-29T15:05:57.274Z,98803.67
2019-03-29T15:08:28.354Z,98802.73
2019-03-29T15:10:59.569Z,98799.10
2019-03-29T15:13:30.612Z,98802.38
2019-03-29T15:16:01.778Z,98790.75
2019-03-29T15:18:32.793Z,98797.98
2019-03-29T15:21:03.784Z,98794.45
2019-03-29T15:23:34.997Z,98789.16
2019-03-29T15:26:06.308Z,98786.20
2019-03-29T15:28:37.717Z,98781.78
2019-03-29T15:31:08.899Z,98772.94
2019-03-29T15:33:39.940Z,98780.84
2019-03-29T15:36:10.895Z,98778.81
2019-03-29T15:38:42.180Z,98782.14
2019-03-29T15:41:13.290Z,98781.44
2019-03-29T15:43:44.565Z,98780.69
2019-03-29T15:46:15.760Z,98776.66
2019-03-29T15:48:47.027Z,98778.59
2019-03-29T15:51:18.174Z,98782.03
2019-03-29T15:53:49.331Z,98776.38
2019-03-29T15:56:20.406Z,98779.00
2019-03-29T15:58:51.661Z,98771.78
2019-03-29T16:01:22.699Z,98762.67
2019-03-29T16:03:54.096Z,98767.52
2019-03-29T16:06:25.258Z,98767.25
2019-03-29T16:08:56.416Z,98764.67
2019-03-29T16:11:27.459Z,98767.92
2019-03-29T16:13:58.555Z,98766.30
2019-03-29T16:16:32.677Z,98759.01
2019-03-29T16:19:03.851Z,98764.00
2019-03-29T16:21:35.043Z,98762.08
2019-03-29T16:24:06.619Z,98762.94
2019-03-29T16:26:37.754Z,98771.81
2019-03-29T16:29:08.866Z,98767.69
2019-03-29T16:31:40.090Z,98761.34
2019-03-29T16:34:11.426Z,98753.78
2019-03-29T16:36:42.536Z,98757.28
2019-03-29T16:39:13.804Z,98750.58
2019-03-29T16:41:44.874Z,98739.02
2019-03-29T16:44:15.862Z,98755.17
2019-03-29T16:46:47.078Z,98747.12
2019-03-29T16:49:18.256Z,98752.73
2019-03-29T16:51:49.414Z,98750.58
2019-03-29T16:54:20.415Z,98749.76
2019-03-29T16:56:51.619Z,98751.27
2019-03-29T16:59:22.728Z,98751.66
2019-03-29T17:01:53.898Z,98754.62
2019-03-29T17:04:24.951Z,98747.56
2019-03-29T17:06:56.081Z,98747.55
2019-03-29T17:09:27.236Z,98748.20
2019-03-29T17:11:59.368Z,98745.98
2019-03-29T17:14:30.419Z,98752.96
2019-03-29T17:17:01.351Z,98747.05
2019-03-29T17:19:32.411Z,98739.68
2019-03-29T17:22:03.483Z,98743.40
2019-03-29T17:24:34.556Z,98743.05
2019-03-29T17:27:05.701Z,98746.55
2019-03-29T17:29:37.003Z,98754.58
2019-03-29T17:32:08.190Z,98746.59
2019-03-29T17:34:39.324Z,98745.27
2019-03-29T17:37:10.447Z,98747.99
2019-03-29T17:39:42.589Z,98745.14
2019-03-29T17:42:13.816Z,98747.62
2019-03-29T17:44:45.014Z,98748.63
2019-03-29T17:47:16.197Z,98743.37
2019-03-29T17:49:47.460Z,98739.79
2019-03-29T17:52:18.501Z,98745.83
2019-03-29T17:54:49.555Z,98744.23
2019-03-29T17:57:20.607Z,98748.39
2019-03-29T17:59:51.795Z,98748.92
2019-03-29T18:02:23.279Z,98753.03
2019-03-29T18:04:54.517Z,98748.81
2019-03-29T18:07:25.624Z,98747.80
2019-03-29T18:09:56.883Z,98755.69
2019-03-29T18:12:27.952Z,98753.42
2019-03-29T18:14:59.062Z,98756.09
2019-03-29T18:17:30.369Z,98760.81
2019-03-29T18:20:01.622Z,98762.08
2019-03-29T18:22:32.600Z,98760.66
2019-03-29T18:25:03.853Z,98766.70
2019-03-29T18:27:34.968Z,98755.53
2019-03-29T18:30:08.224Z,98760.32
2019-03-29T18:32:39.438Z,98764.38
2019-03-29T18:35:10.979Z,98766.19
2019-03-29T18:37:42.736Z,98760.68
2019-03-29T18:40:26.452Z,98759.39
2019-03-29T18:42:57.895Z,98765.16
2019-03-29T18:45:29.203Z,98755.05
2019-03-29T18:48:00.365Z,98753.67
2019-03-29T18:50:31.506Z,98761.59
2019-03-29T18:53:02.688Z,98766.48
2019-03-29T18:55:33.921Z,98766.31
2019-03-29T18:58:05.982Z,98773.23
2019-03-29T19:00:38.049Z,98765.31
2019-03-29T19:03:11.915Z,98774.66
2019-03-29T19:05:42.266Z,98765.02
2019-03-29T19:08:13.411Z,98770.18
2019-03-29T19:10:44.734Z,98765.52
2019-03-29T19:13:19.036Z,98761.85
2019-03-29T19:15:50.285Z,98759.88
2019-03-29T19:18:21.374Z,98763.98
2019-03-29T19:20:52.531Z,98762.21
2019-03-29T19:23:23.883Z,98760.92
2019-03-29T19:25:55.256Z,98758.56
2019-03-29T19:28:26.444Z,98758.05
2019-03-29T19:30:57.705Z,98764.91
2019-03-29T19:33:28.932Z,98755.81
2019-03-29T19:36:00.062Z,98757.36
2019-03-29T19:38:31.184Z,98755.73
2019-03-29T19:41:02.404Z,98761.30
2019-03-29T19:43:33.600Z,98752.05
2019-03-29T19:46:04.994Z,98761.88
2019-03-29T19:48:36.244Z,98764.27
2019-03-29T19:51:07.414Z,98758.04
2019-03-29T19:53:38.677Z,98758.17
2019-03-29T19:56:09.707Z,98746.79
2019-03-29T19:58:40.985Z,98754.25
2019-03-29T20:01:12.089Z,98760.15
2019-03-29T20:03:43.199Z,98751.91
2019-03-29T20:06:14.405Z,98752.20
2019-03-29T20:08:45.417Z,98755.13
2019-03-29T20:11:16.716Z,98754.22
2019-03-29T20:13:47.852Z,98750.13
2019-03-29T20:16:19.055Z,98761.11
2019-03-29T20:18:50.179Z,98756.35
2019-03-29T20:21:21.395Z,98758.23
2019-03-29T20:23:52.518Z,98760.97
2019-03-29T20:26:23.722Z,98764.11
2019-03-29T20:28:54.699Z,98760.48
2019-03-29T20:31:26.026Z,98766.00
2019-03-29T20:33:57.122Z,98762.40
2019-03-29T20:36:28.272Z,98762.42
2019-03-29T20:38:59.338Z,98764.18
2019-03-29T20:41:30.753Z,98762.53
2019-03-29T20:44:01.885Z,98766.89
2019-03-29T20:46:33.256Z,98767.81
2019-03-29T20:49:04.320Z,98764.26
2019-03-29T20:51:35.480Z,98763.98
2019-03-29T20:54:06.664Z,98761.45
2019-03-29T20:56:37.758Z,98763.20
2019-03-29T20:59:09.158Z,98759.73
2019-03-29T21:03:20.955Z,98753.63
2019-03-29T21:05:52.202Z,98751.05
2019-03-29T21:08:23.454Z,98751.42
2019-03-29T21:10:56.421Z,98753.61
2019-03-29T21:13:27.345Z,98751.97
2019-03-29T21:15:58.375Z,98753.76
2019-03-29T21:18:29.476Z,98756.67
2019-03-29T21:21:00.567Z,98750.39
2019-03-29T21:23:31.943Z,98742.11
2019-03-29T21:26:02.996Z,98736.97
2019-03-29T21:28:35.125Z,98739.62
2019-03-29T21:31:06.355Z,98745.95
2019-03-29T21:33:40.561Z,98737.23
2019-03-29T21:36:10.680Z,98738.77
2019-03-29T21:38:41.895Z,98737.95
2019-03-29T21:41:13.255Z,98730.36
2019-03-29T21:43:44.223Z,98730.61
2019-03-29T21:46:15.655Z,98731.41
2019-03-29T21:48:46.709Z,98734.44
2019-03-29T21:51:17.954Z,98731.36
2019-03-29T21:53:49.268Z,98730.30
2019-03-29T21:56:20.373Z,98725.42
2019-03-29T21:58:51.628Z,98730.23
2019-03-29T22:01:22.914Z,98721.77
2019-03-29T22:03:54.037Z,98718.41
2019-03-29T22:06:25.121Z,98722.50
2019-03-29T22:08:56.272Z,98716.24
2019-03-29T22:11:27.581Z,98714.97
2019-03-29T22:13:58.714Z,98715.99
2019-03-29T22:16:29.779Z,98711.09
2019-03-29T22:19:01.001Z,98710.81
2019-03-29T22:21:32.228Z,98704.17
2019-03-29T22:24:03.336Z,98705.82
2019-03-29T22:26:34.515Z,98702.73
2019-03-29T22:29:05.784Z,98689.37
2019-03-29T22:31:37.032Z,98698.04
2019-03-29T22:34:08.266Z,98698.45
2019-03-29T22:36:39.384Z,98691.48
2019-03-29T22:39:10.650Z,98696.27
2019-03-29T22:41:41.743Z,98698.01
2019-03-29T22:44:12.710Z,98699.33
2019-03-29T22:46:43.868Z,98698.42
2019-03-29T22:49:14.893Z,98701.25
2019-03-29T22:51:46.022Z,98699.89
2019-03-29T22:54:17.241Z,98700.61
2019-03-29T22:56:48.333Z,98697.28
2019-03-29T22:59:19.396Z,98697.41
2019-03-29T23:01:50.843Z,98697.87
2019-03-29T23:04:21.873Z,98693.86
2019-03-29T23:06:53.074Z,98695.13
2019-03-29T23:09:24.167Z,98692.99
2019-03-29T23:11:55.217Z,98689.59
2019-03-29T23:14:26.357Z,98685.42
2019-03-29T23:16:57.638Z,98691.22
2019-03-29T23:19:28.827Z,98698.66
2019-03-29T23:21:59.949Z,98689.30
2019-03-29T23:24:31.020Z,98689.41
2019-03-29T23:27:02.583Z,98691.08
2019-03-29T23:29:33.727Z,98691.13
2019-03-29T23:32:05.031Z,98692.13
2019-03-29T23:34:36.221Z,98691.72
2019-03-29T23:37:07.278Z,98686.70
2019-03-29T23:39:38.902Z,98684.14
2019-03-29T23:42:10.171Z,98683.55
2019-03-29T23:44:41.384Z,98692.04
2019-03-29T23:47:12.557Z,98683.86
2019-03-29T23:49:43.739Z,98684.14
2019-03-29T23:52:14.890Z,98685.17
2019-03-29T23:54:46.036Z,98685.03
2019-03-29T23:57:17.268Z,98684.61
2019-03-29T23:59:48.459Z,98675.23
